Time;durP1;ratioP1;P1;durP2;ratioP2;P2;SDS_P1;SDS_P2;PMS_P1;PMS_P2;Temp;Humidity;BMP_temperature;BMP_pressure;BME280_temperature;BME280_humidity;BME280_pressure;Samples;Min_cycle;Max_cycle;Signal;HPM_P1;HPM_P2
2021/10/25 00:01:32;;;;;;;;;;;;;;;5.56;73.04;101363.97;5013137;28;1985;-62
2021/10/25 00:03:59;;;;;;;;;;;;;;;5.67;72.00;101367.94;5013551;28;878;-62
2021/10/25 00:06:26;;;;;;;;;;;;;;;5.75;71.41;101369.84;5014001;28;865;-62
2021/10/25 00:08:52;;;;;;;;;;;;;;;5.84;70.67;101358.81;5013780;28;929;-62
2021/10/25 00:11:19;;;;;;;;;;;;;;;5.89;70.69;101367.66;4996179;28;1331;-62
2021/10/25 00:13:46;;;;;;;;;;;;;;;5.88;71.18;101362.50;4996060;28;1331;-62
2021/10/25 00:16:11;;;;;;;;;;;;;;;5.86;70.82;101360.09;5013719;28;1001;-62
2021/10/25 00:18:37;;;;;;;;;;;;;;;5.85;70.76;101358.50;5013342;28;1211;-62
2021/10/25 00:21:04;;;;;;;;;;;;;;;5.83;70.25;101354.47;5013571;28;1967;-62
2021/10/25 00:23:30;;;;;;;;;;;;;;;5.78;70.59;101355.44;5013515;28;894;-62
2021/10/25 00:25:57;;;;;;;;;;;;;;;5.75;70.50;101363.56;5013499;28;878;-62
2021/10/25 00:28:23;;;;;;;;;;;;;;;5.72;70.40;101354.84;5013422;28;819;-62
2021/10/25 00:30:50;;;;;;;;;;;;;;;5.70;69.86;101350.84;5013596;28;1020;-62
2021/10/25 00:33:17;;;;;;;;;;;;;;;5.75;69.90;101349.84;5013312;28;870;-62
2021/10/25 00:35:44;;;;;;;;;;;;;;;5.75;69.63;101345.16;5013340;28;886;-62
2021/10/25 00:38:10;;;;;;;;;;;;;;;5.71;69.85;101353.22;5013292;28;850;-62
2021/10/25 00:40:37;;;;;;;;;;;;;;;5.62;70.51;101340.72;5013138;28;1889;-62
2021/10/25 00:43:04;;;;;;;;;;;;;;;5.58;71.29;101351.53;4995890;28;1249;-62
2021/10/25 00:45:31;;;;;;;;;;;;;;;5.53;70.97;101351.75;4995460;28;1426;-62
2021/10/25 00:47:57;;;;;;;;;;;;;;;5.53;71.45;101351.75;5013149;28;839;-62
2021/10/25 00:50:24;;;;;;;;;;;;;;;5.49;71.85;101357.06;5013270;28;775;-62
2021/10/25 00:52:51;;;;;;;;;;;;;;;5.48;72.11;101349.16;5013037;28;835;-62
2021/10/25 00:55:18;;;;;;;;;;;;;;;5.46;71.77;101351.44;5012954;28;858;-62
2021/10/25 00:57:44;;;;;;;;;;;;;;;5.45;72.17;101349.84;5012875;28;862;-62
2021/10/25 01:00:11;;;;;;;;;;;;;;;5.43;72.30;101350.16;5012850;28;812;-62
2021/10/25 01:02:39;;;;;;;;;;;;;;;5.42;72.54;101350.47;5012817;28;1882;-62
2021/10/25 01:05:06;;;;;;;;;;;;;;;5.39;72.35;101346.47;5012791;28;814;-62
2021/10/25 01:07:35;;;;;;;;;;;;;;;5.41;72.66;101341.47;5012817;28;858;-63
2021/10/25 01:10:04;;;;;;;;;;;;;;;5.39;72.15;101342.94;5012685;28;831;-62
2021/10/25 01:12:31;;;;;;;;;;;;;;;5.37;72.27;101342.44;5012557;28;878;-62
2021/10/25 01:14:58;;;;;;;;;;;;;;;5.41;72.81;101346.16;5012363;28;823;-62
2021/10/25 01:17:26;;;;;;;;;;;;;;;5.45;72.50;101345.16;5012859;28;922;-62
2021/10/25 01:19:54;;;;;;;;;;;;;;;5.40;72.03;101342.59;5012296;28;1359;-62
2021/10/25 01:22:21;;;;;;;;;;;;;;;5.38;72.64;101350.34;5012368;28;1978;-62
2021/10/25 01:24:50;;;;;;;;;;;;;;;5.36;72.46;101354.56;5012475;28;854;-62
2021/10/25 01:27:17;;;;;;;;;;;;;;;5.34;72.74;101352.16;4994594;28;1193;-62
2021/10/25 01:29:43;;;;;;;;;;;;;;;5.27;73.09;101349.91;5012373;28;863;-62
2021/10/25 01:32:10;;;;;;;;;;;;;;;5.20;73.58;101348.81;5012321;28;843;-62
2021/10/25 01:34:37;;;;;;;;;;;;;;;5.15;74.11;101355.28;5012256;28;827;-62
2021/10/25 01:37:05;;;;;;;;;;;;;;;5.09;73.85;101360.13;5012274;28;823;-62
2021/10/25 01:39:31;;;;;;;;;;;;;;;5.05;74.25;101353.69;5012146;28;811;-62
2021/10/25 01:41:58;;;;;;;;;;;;;;;5.01;74.09;101351.94;5012126;28;2023;-62
2021/10/25 01:44:25;;;;;;;;;;;;;;;5.01;74.94;101355.47;5012109;28;850;-62
2021/10/25 01:46:51;;;;;;;;;;;;;;;4.91;74.82;101359.38;5012155;28;858;-62
2021/10/25 01:49:18;;;;;;;;;;;;;;;4.86;75.76;101366.94;5012061;28;796;-62
2021/10/25 01:51:45;;;;;;;;;;;;;;;4.83;74.97;101371.16;5012105;28;787;-62
2021/10/25 01:54:11;;;;;;;;;;;;;;;4.81;75.52;101370.66;5011951;28;815;-62
2021/10/25 01:56:38;;;;;;;;;;;;;;;4.77;75.95;101368.91;5011892;28;850;-62
2021/10/25 01:59:10;;;;;;;;;;;;;;;4.67;76.10;101365.38;5011994;28;795;-62
2021/10/25 02:01:36;;;;;;;;;;;;;;;4.66;75.91;101363.75;4994176;28;1886;-62
2021/10/25 02:04:03;;;;;;;;;;;;;;;4.65;75.60;101361.34;5011854;28;823;-62
2021/10/25 02:06:29;;;;;;;;;;;;;;;4.68;75.61;101366.97;5011819;28;815;-62
2021/10/25 02:08:56;;;;;;;;;;;;;;;4.61;75.77;101368.59;4994222;28;1193;-62
2021/10/25 02:11:22;;;;;;;;;;;;;;;4.59;75.84;101359.91;5011778;28;807;-62
2021/10/25 02:13:49;;;;;;;;;;;;;;;4.60;76.01;101367.78;5011856;28;831;-62
2021/10/25 02:16:16;;;;;;;;;;;;;;;4.55;75.99;101359.75;5011836;28;995;-63
2021/10/25 02:18:42;;;;;;;;;;;;;;;4.54;76.11;101360.06;5011540;28;1356;-62
2021/10/25 02:21:09;;;;;;;;;;;;;;;4.55;76.42;101364.44;5011638;28;1967;-62
2021/10/25 02:23:35;;;;;;;;;;;;;;;4.51;76.13;101361.53;4994055;28;2161;-62
2021/10/25 02:26:03;;;;;;;;;;;;;;;4.49;76.22;101364.59;5013566;28;819;-62
2021/10/25 02:28:31;;;;;;;;;;;;;;;4.54;75.92;101360.88;5015619;28;878;-62
2021/10/25 02:30:58;;;;;;;;;;;;;;;4.53;75.65;101361.22;5015710;28;861;-62
2021/10/25 02:33:25;;;;;;;;;;;;;;;4.59;75.47;101365.41;5015560;28;862;-62
2021/10/25 02:35:52;;;;;;;;;;;;;;;4.60;74.98;101364.25;5015572;28;812;-62
2021/10/25 02:38:19;;;;;;;;;;;;;;;4.50;76.04;101368.13;5015786;28;850;-62
2021/10/25 02:40:46;;;;;;;;;;;;;;;4.49;75.92;101363.78;5015415;28;1949;-62
2021/10/25 02:43:12;;;;;;;;;;;;;;;4.44;76.19;101367.50;4997765;28;1295;-62
2021/10/25 02:45:39;;;;;;;;;;;;;;;4.39;76.00;101367.63;4997829;28;1209;-62
2021/10/25 02:48:06;;;;;;;;;;;;;;;4.37;76.10;101374.56;5015294;28;886;-62
2021/10/25 02:50:33;;;;;;;;;;;;;;;4.37;76.15;101366.34;5015318;28;847;-62
2021/10/25 02:52:59;;;;;;;;;;;;;;;4.33;76.36;101370.84;5015295;28;819;-62
2021/10/25 02:55:27;;;;;;;;;;;;;;;4.33;76.78;101376.34;5015220;28;811;-62
2021/10/25 02:57:53;;;;;;;;;;;;;;;4.30;77.04;101377.78;5015135;28;863;-62
2021/10/25 03:00:20;;;;;;;;;;;;;;;4.31;77.17;101379.41;4997425;28;1300;-62
2021/10/25 03:02:47;;;;;;;;;;;;;;;4.30;77.03;101373.13;5015079;28;1952;-62
2021/10/25 03:05:13;;;;;;;;;;;;;;;4.32;77.45;101372.81;5014985;28;892;-62
2021/10/25 03:07:40;;;;;;;;;;;;;;;4.33;77.66;101368.13;4997464;28;1332;-62
2021/10/25 03:10:08;;;;;;;;;;;;;;;4.32;77.20;101367.31;5014899;28;835;-62
2021/10/25 03:12:35;;;;;;;;;;;;;;;4.32;77.00;101369.28;5014873;28;854;-62
2021/10/25 03:15:01;;;;;;;;;;;;;;;4.30;77.35;101366.84;5014807;28;788;-62
2021/10/25 03:17:28;;;;;;;;;;;;;;;4.19;77.52;101363.63;5015116;28;944;-62
2021/10/25 03:19:55;;;;;;;;;;;;;;;4.09;77.98;101361.19;5014548;28;1192;-62
2021/10/25 03:22:22;;;;;;;;;;;;;;;4.02;78.06;101360.88;5014650;28;1918;-62
2021/10/25 03:24:49;;;;;;;;;;;;;;;3.88;78.33;101361.00;4996974;28;858;-62
2021/10/25 03:27:15;;;;;;;;;;;;;;;3.75;78.43;101368.19;5014884;28;771;-62
2021/10/25 03:29:42;;;;;;;;;;;;;;;3.65;79.07;101372.06;5014550;28;792;-62
2021/10/25 03:32:09;;;;;;;;;;;;;;;3.52;79.70;101377.63;5014544;28;862;-62
2021/10/25 03:34:35;;;;;;;;;;;;;;;3.43;79.92;101383.84;5014414;28;826;-62
2021/10/25 03:37:02;;;;;;;;;;;;;;;3.46;80.08;101387.91;5014491;28;819;-62
2021/10/25 03:39:32;;;;;;;;;;;;;;;3.44;79.83;101380.03;5014329;28;862;-62
2021/10/25 03:42:00;;;;;;;;;;;;;;;3.50;79.16;101382.59;5014605;28;1977;-62
2021/10/25 03:44:44;;;;;;;;;;;;;;;3.55;78.59;101382.47;5014358;28;874;-62
2021/10/25 03:47:20;;;;;;;;;;;;;;;3.61;77.93;101383.94;5014228;28;811;-62
2021/10/25 03:49:55;;;;;;;;;;;;;;;3.65;78.07;101385.72;5014263;28;920;-62
2021/10/25 03:52:28;;;;;;;;;;;;;;;3.64;77.56;101383.31;4996458;28;1276;-62
2021/10/25 04:00:38;;;;;;;;;;;;;;;3.88;75.73;101377.41;5014064;28;740;-62
2021/10/25 04:30:14;;;;;;;;;;;;;;;3.83;75.70;101378.38;5013456;28;756;-62
2021/10/25 04:32:41;;;;;;;;;;;;;;;3.81;76.24;101380.63;4995836;28;1542;-62
2021/10/25 04:35:08;;;;;;;;;;;;;;;3.81;76.27;101385.28;5013389;28;914;-62
2021/10/25 04:37:35;;;;;;;;;;;;;;;3.72;76.42;101393.47;5013419;28;791;-62
2021/10/25 04:40:03;;;;;;;;;;;;;;;3.67;76.92;101393.63;5013266;28;811;-62
2021/10/25 04:42:32;;;;;;;;;;;;;;;3.61;77.11;101394.88;5013170;28;1898;-62
2021/10/25 04:44:59;;;;;;;;;;;;;;;3.54;77.59;101394.53;5013464;28;811;-62
2021/10/25 04:47:26;;;;;;;;;;;;;;;3.48;77.77;101393.88;5013016;28;815;-62
2021/10/25 04:49:53;;;;;;;;;;;;;;;3.43;77.81;101403.00;5012657;28;819;-62
2021/10/25 04:52:19;;;;;;;;;;;;;;;3.37;77.94;101396.06;5012959;28;854;-62
2021/10/25 04:54:46;;;;;;;;;;;;;;;3.34;77.63;101404.09;5012918;28;791;-62
2021/10/25 04:57:12;;;;;;;;;;;;;;;3.35;78.01;101397.50;5012954;28;882;-62
2021/10/25 04:59:39;;;;;;;;;;;;;;;3.37;78.08;101403.44;5012885;28;954;-62
2021/10/25 05:02:05;;;;;;;;;;;;;;;3.45;77.89;101406.22;5012848;28;1894;-62
2021/10/25 05:04:32;;;;;;;;;;;;;;;3.61;76.91;101405.81;4995197;28;895;-62
2021/10/25 05:06:59;;;;;;;;;;;;;;;3.74;77.03;101418.56;5012736;28;811;-62
2021/10/25 05:09:25;;;;;;;;;;;;;;;3.85;76.54;101419.88;5013005;28;843;-62
2021/10/25 05:17:27;;;;;;;;;;;;;;;4.32;73.76;101416.59;6045710;23;1529;-63
2021/10/25 05:19:54;;;;;;;;;;;;;;;4.49;73.19;101413.06;5012610;28;862;-62
2021/10/25 05:22:20;;;;;;;;;;;;;;;4.72;72.03;101416.44;5012459;28;1985;-62
2021/10/25 05:24:46;;;;;;;;;;;;;;;4.84;71.59;101415.78;5012593;28;826;-62
2021/10/25 05:27:14;;;;;;;;;;;;;;;4.94;70.81;101420.94;5012387;28;929;-62
2021/10/25 05:29:41;;;;;;;;;;;;;;;5.17;70.04;101424.28;4994795;28;1331;-62
2021/10/25 05:32:08;;;;;;;;;;;;;;;5.49;69.36;101420.16;5012616;28;816;-62
2021/10/25 05:34:35;;;;;;;;;;;;;;;5.80;67.82;101429.22;5012367;28;1041;-62
2021/10/25 05:37:01;;;;;;;;;;;;;;;6.11;66.20;101435.22;5012247;28;897;-62
2021/10/25 05:39:28;;;;;;;;;;;;;;;6.32;64.52;101423.47;5012382;28;867;-62
2021/10/25 05:41:54;;;;;;;;;;;;;;;6.29;65.77;101432.34;5012298;28;1961;-62
2021/10/25 05:44:22;;;;;;;;;;;;;;;6.15;65.14;101432.63;5012176;28;866;-62
2021/10/25 05:46:48;;;;;;;;;;;;;;;6.09;65.45;101425.69;5012036;28;814;-62
2021/10/25 05:49:15;;;;;;;;;;;;;;;6.15;65.32;101432.63;5012127;28;871;-62
2021/10/25 05:51:42;;;;;;;;;;;;;;;6.37;65.11;101433.44;5012156;28;851;-63
2021/10/25 05:54:08;;;;;;;;;;;;;;;6.58;63.89;101442.47;5012028;28;841;-62
2021/10/25 05:56:35;;;;;;;;;;;;;;;6.80;63.15;101440.53;5012307;28;850;-63
2021/10/25 05:59:03;;;;;;;;;;;;;;;6.83;62.95;101439.84;5011816;28;898;-63
2021/10/25 06:01:38;;;;;;;;;;;;;;;6.88;64.08;101443.19;5011494;28;1952;-63
2021/10/25 06:04:05;;;;;;;;;;;;;;;6.92;64.64;101455.13;5012011;28;862;-62
2021/10/25 06:06:33;;;;;;;;;;;;;;;6.98;64.11;101450.22;5011928;28;835;-62
2021/10/25 06:09:00;;;;;;;;;;;;;;;7.05;64.15;101450.47;4994198;28;1360;-63
2021/10/25 06:11:27;;;;;;;;;;;;;;;7.14;63.61;101442.13;5011865;28;791;-62
2021/10/25 06:13:59;;;;;;;;;;;;;;;7.33;63.47;101456.16;5011870;28;878;-62
2021/10/25 06:16:36;;;;;;;;;;;;;;;7.75;61.57;101457.97;5011672;28;897;-62
2021/10/25 06:19:04;;;;;;;;;;;;;;;8.39;59.37;101460.00;4993982;28;1331;-63
2021/10/25 06:21:31;;;;;;;;;;;;;;;8.76;58.34;101457.19;5011576;28;1977;-63
2021/10/25 06:23:59;;;;;;;;;;;;;;;8.97;57.26;101461.72;5011920;28;898;-63
2021/10/25 06:26:28;;;;;;;;;;;;;;;9.13;57.35;101458.97;5012321;28;783;-63
2021/10/25 06:28:55;;;;;;;;;;;;;;;9.37;59.28;101460.84;5011933;28;898;-63
2021/10/25 06:31:23;;;;;;;;;;;;;;;9.79;57.56;101457.53;5011656;28;862;-63
2021/10/25 06:33:49;;;;;;;;;;;;;;;10.11;56.34;101457.50;5011622;28;918;-63
2021/10/25 06:36:21;;;;;;;;;;;;;;;10.44;55.23;101459.09;5011582;28;811;-63
2021/10/25 06:41:18;;;;;;;;;;;;;;;10.91;54.81;101461.66;5011442;28;1959;-63
2021/10/25 06:43:45;;;;;;;;;;;;;;;10.83;53.10;101457.16;5011580;28;857;-63
2021/10/25 06:46:12;;;;;;;;;;;;;;;10.82;53.13;101458.31;5011419;28;890;-63
2021/10/25 06:48:38;;;;;;;;;;;;;;;11.08;53.01;101452.13;5011435;28;831;-63
2021/10/25 06:51:05;;;;;;;;;;;;;;;11.31;51.94;101454.94;5011474;28;850;-63
2021/10/25 06:53:32;;;;;;;;;;;;;;;11.21;52.50;101455.53;4993773;28;1296;-63
2021/10/25 06:55:58;;;;;;;;;;;;;;;11.08;52.16;101454.09;5011437;28;854;-64
2021/10/25 06:58:25;;;;;;;;;;;;;;;11.04;53.51;101451.25;5011370;28;815;-63
2021/10/25 07:00:52;;;;;;;;;;;;;;;11.11;55.32;101447.81;5011244;28;1949;-63
2021/10/25 07:03:18;;;;;;;;;;;;;;;11.39;52.29;101451.13;5011461;28;791;-63
2021/10/25 07:05:45;;;;;;;;;;;;;;;11.75;51.38;101453.69;5011307;28;807;-63
2021/10/25 07:08:14;;;;;;;;;;;;;;;12.15;51.66;101441.31;5011351;28;850;-63
2021/10/25 07:10:40;;;;;;;;;;;;;;;12.25;51.82;101447.00;5011590;28;902;-64
2021/10/25 07:13:07;;;;;;;;;;;;;;;12.42;52.47;101444.88;5014690;28;802;-64
2021/10/25 07:15:38;;;;;;;;;;;;;;;12.78;54.66;101451.66;5014810;28;806;-63
2021/10/25 07:18:55;;;;;;;;;;;;;;;13.47;55.43;101445.69;5014705;28;1212;-61
2021/10/25 07:21:11;;;;;;;;;;;;;;;14.16;54.69;101447.03;5003695;28;1910;-63
2021/10/25 07:23:59;;;;;;;;;;;;;;;14.27;54.94;101438.75;5014753;28;818;-63
2021/10/25 07:27:15;;;;;;;;;;;;;;;14.29;52.19;101433.59;5014452;28;1091;-63
2021/10/25 08:03:00;;;;;;;;;;;;;;;14.84;52.78;101416.00;4953552;29;1882;-62
2021/10/25 08:10:46;;;;;;;;;;;;;;;14.26;50.64;101418.50;5013920;28;586;-63
2021/10/25 08:13:15;;;;;;;;;;;;;;;14.38;50.82;101417.38;5013888;28;827;-62
2021/10/25 08:15:44;;;;;;;;;;;;;;;14.40;47.44;101417.78;4996050;28;854;-62
2021/10/25 08:19:06;;;;;;;;;;;;;;;14.44;47.48;101412.22;5013552;28;1309;-62
2021/10/25 08:21:01;;;;;;;;;;;;;;;14.13;45.05;101413.66;5005283;28;1974;-62
2021/10/25 08:23:31;;;;;;;;;;;;;;;13.96;51.38;101404.03;5012682;28;870;-63
2021/10/25 08:25:58;;;;;;;;;;;;;;;14.06;52.09;101411.59;5013629;28;794;-63
2021/10/25 08:28:25;;;;;;;;;;;;;;;14.20;51.03;101413.69;4995925;28;1181;-62
2021/10/25 08:30:52;;;;;;;;;;;;;;;14.20;48.20;101414.47;4995878;28;1213;-62
2021/10/25 08:41:09;;;;;;;;;;;;;;;13.64;47.15;101418.47;5013265;28;1895;-62
2021/10/25 08:43:37;;;;;;;;;;;;;;;13.55;45.28;101421.56;5013167;28;842;-62
2021/10/25 08:46:07;;;;;;;;;;;;;;;13.47;50.75;101414.34;5013138;28;857;-62
2021/10/25 08:48:34;;;;;;;;;;;;;;;13.47;46.81;101423.47;5013515;28;803;-62
2021/10/25 08:51:01;;;;;;;;;;;;;;;13.45;46.05;101417.50;5013348;28;787;-62
2021/10/25 08:53:28;;;;;;;;;;;;;;;13.59;47.96;101414.06;5013266;28;799;-62
2021/10/25 08:55:54;;;;;;;;;;;;;;;13.67;48.64;101407.38;5013252;28;823;-62
2021/10/25 08:58:21;;;;;;;;;;;;;;;13.63;52.50;101412.13;5013251;28;819;-63
2021/10/25 09:00:51;;;;;;;;;;;;;;;13.64;47.48;101419.25;4995485;28;1890;-62
2021/10/25 09:03:20;;;;;;;;;;;;;;;13.55;45.52;101417.97;5012968;28;822;-63
2021/10/25 09:05:56;;;;;;;;;;;;;;;13.38;48.03;101420.22;5012860;28;806;-63
2021/10/25 09:08:24;;;;;;;;;;;;;;;13.49;46.68;101406.44;5012860;28;823;-63
2021/10/25 09:10:50;;;;;;;;;;;;;;;13.24;44.01;101411.72;5012728;28;830;-62
2021/10/25 09:13:18;;;;;;;;;;;;;;;13.21;44.01;101406.94;4995026;28;1287;-63
2021/10/25 09:15:47;;;;;;;;;;;;;;;13.40;48.29;101409.53;5012644;28;822;-61
2021/10/25 09:18:15;;;;;;;;;;;;;;;13.82;46.57;101401.91;4994863;28;1213;-64
2021/10/25 09:20:55;;;;;;;;;;;;;;;14.13;47.30;101405.31;5012506;28;1918;-63
2021/10/25 09:23:24;;;;;;;;;;;;;;;14.46;44.09;101393.16;5012516;28;901;-62
2021/10/25 09:26:01;;;;;;;;;;;;;;;14.26;45.00;101399.03;5012530;28;858;-63
2021/10/25 09:28:40;;;;;;;;;;;;;;;14.30;46.74;101391.50;5012560;28;807;-61
2021/10/25 09:31:10;;;;;;;;;;;;;;;14.14;46.32;101390.22;5012394;28;878;-63
2021/10/25 09:33:39;;;;;;;;;;;;;;;14.25;43.42;101377.97;5012341;28;795;-63
2021/10/25 09:36:09;;;;;;;;;;;;;;;14.07;42.73;101385.41;5012092;28;881;-62
2021/10/25 09:49:16;;;;;;;;;;;;;;;14.26;42.47;101376.78;5012171;28;569;-62
2021/10/25 09:51:55;;;;;;;;;;;;;;;13.97;42.68;101375.03;5012154;28;833;-62
2021/10/25 09:54:23;;;;;;;;;;;;;;;13.89;43.72;101375.00;5012128;28;879;-62
2021/10/25 09:57:14;;;;;;;;;;;;;;;14.25;43.71;101363.25;5012368;28;807;-60
2021/10/25 09:59:51;;;;;;;;;;;;;;;14.55;42.59;101364.97;5011983;28;894;-62
2021/10/25 10:02:19;;;;;;;;;;;;;;;14.47;43.06;101358.59;4994279;28;1981;-62
2021/10/25 10:04:49;;;;;;;;;;;;;;;14.41;42.32;101354.59;5011886;28;795;-61
2021/10/25 10:07:18;;;;;;;;;;;;;;;14.38;43.65;101353.41;4994318;28;1185;-62
2021/10/25 10:09:46;;;;;;;;;;;;;;;14.45;43.96;101341.50;5012794;28;760;-62
2021/10/25 10:12:17;;;;;;;;;;;;;;;14.48;41.97;101333.16;5011838;28;854;-62
2021/10/25 10:14:49;;;;;;;;;;;;;;;14.75;43.04;101330.09;5011872;28;889;-62
2021/10/25 10:17:34;;;;;;;;;;;;;;;14.92;42.52;101325.75;5011645;28;1020;-62
2021/10/25 10:20:05;;;;;;;;;;;;;;;14.81;41.06;101331.31;5011776;28;807;-62
2021/10/25 10:22:34;;;;;;;;;;;;;;;14.69;38.53;101326.91;5011795;28;1914;-62
2021/10/25 10:25:01;;;;;;;;;;;;;;;14.46;39.17;101318.84;5011580;28;867;-63
2021/10/25 10:27:27;;;;;;;;;;;;;;;14.44;40.15;101314.88;5011727;28;823;-63
2021/10/25 10:29:58;;;;;;;;;;;;;;;14.35;39.56;101312.44;5011573;28;870;-62
2021/10/25 10:32:26;;;;;;;;;;;;;;;14.38;40.45;101313.66;5011672;28;807;-63
2021/10/25 10:34:53;;;;;;;;;;;;;;;14.49;40.17;101300.59;5011633;28;898;-60
2021/10/25 10:37:23;;;;;;;;;;;;;;;14.65;40.81;101305.81;5011559;28;858;-62
2021/10/25 10:40:10;;;;;;;;;;;;;;;14.97;41.34;101294.72;5011970;28;842;-62
2021/10/25 10:42:38;;;;;;;;;;;;;;;15.08;38.15;101297.53;5011353;28;1947;-62
2021/10/25 10:45:12;;;;;;;;;;;;;;;14.16;39.43;101298.88;5011815;28;815;-62
2021/10/25 10:47:45;;;;;;;;;;;;;;;13.86;40.03;101297.13;5014442;28;839;-62
2021/10/25 10:50:20;;;;;;;;;;;;;;;14.14;40.86;101296.47;5015476;28;831;-62
2021/10/25 10:52:57;;;;;;;;;;;;;;;14.16;40.19;101296.88;5015693;28;900;-60
2021/10/25 10:55:26;;;;;;;;;;;;;;;13.79;41.64;101297.09;5015346;28;779;-62
2021/10/25 11:00:23;;;;;;;;;;;;;;;13.35;43.40;101284.91;5015137;28;894;-62
2021/10/25 11:02:59;;;;;;;;;;;;;;;13.16;44.52;101280.38;5015139;28;1886;-62
2021/10/25 11:05:32;;;;;;;;;;;;;;;13.62;42.27;101266.03;5015120;28;799;-62
2021/10/25 11:08:03;;;;;;;;;;;;;;;14.45;41.19;101269.97;5015098;28;873;-62
2021/10/25 11:10:32;;;;;;;;;;;;;;;14.74;39.45;101270.03;5015016;28;858;-62
2021/10/25 11:13:12;;;;;;;;;;;;;;;14.77;40.20;101268.47;5014942;28;886;-62
2021/10/25 11:15:51;;;;;;;;;;;;;;;15.10;39.56;101264.50;5014936;28;846;-62
2021/10/25 11:18:22;;;;;;;;;;;;;;;15.54;38.75;101257.69;5014652;28;1267;-62
2021/10/25 11:20:53;;;;;;;;;;;;;;;15.76;38.41;101257.66;5014895;28;1922;-62
2021/10/25 11:23:19;;;;;;;;;;;;;;;15.60;37.16;101252.53;5014835;28;839;-62
2021/10/25 11:25:47;;;;;;;;;;;;;;;15.26;37.43;101250.97;5014708;28;815;-62
2021/10/25 11:28:21;;;;;;;;;;;;;;;15.10;36.74;101253.38;5014675;28;863;-62
2021/10/25 11:30:48;;;;;;;;;;;;;;;15.22;37.52;101243.81;5014672;28;792;-62
2021/10/25 11:33:19;;;;;;;;;;;;;;;15.55;37.26;101238.97;5014612;28;878;-62
2021/10/25 11:35:48;;;;;;;;;;;;;;;15.70;35.00;101226.59;5014532;28;863;-63
2021/10/25 11:38:15;;;;;;;;;;;;;;;15.59;35.44;101240.56;5014480;28;791;-59
2021/10/25 11:40:42;;;;;;;;;;;;;;;15.74;35.51;101227.41;5014380;28;816;-62
2021/10/25 11:43:09;;;;;;;;;;;;;;;15.91;36.65;101222.97;5014270;28;1882;-62
2021/10/25 11:45:36;;;;;;;;;;;;;;;16.21;36.42;101224.41;5014337;28;827;-62
2021/10/25 11:48:03;;;;;;;;;;;;;;;16.31;35.55;101210.41;5014293;28;795;-62
2021/10/25 11:50:31;;;;;;;;;;;;;;;16.39;34.93;101215.97;5014287;28;811;-59
2021/10/25 11:53:05;;;;;;;;;;;;;;;16.36;34.13;101211.19;5014223;28;799;-60
2021/10/25 11:55:42;;;;;;;;;;;;;;;15.96;34.84;101214.19;5014169;28;862;-60
2021/10/25 11:58:13;;;;;;;;;;;;;;;15.54;35.15;101215.91;5014080;28;866;-62
2021/10/25 12:00:44;;;;;;;;;;;;;;;15.46;36.66;101211.53;5014068;28;767;-62
2021/10/25 12:03:11;;;;;;;;;;;;;;;15.88;36.52;101215.41;5014078;28;2043;-62
2021/10/25 12:05:39;;;;;;;;;;;;;;;15.84;35.52;101226.56;4996320;28;1244;-62
2021/10/25 12:08:08;;;;;;;;;;;;;;;15.49;35.81;101217.13;5013987;28;842;-62
2021/10/25 12:10:36;;;;;;;;;;;;;;;15.60;37.27;101225.44;4996160;28;1347;-62
2021/10/25 12:13:04;;;;;;;;;;;;;;;15.62;36.76;101213.88;5013873;28;866;-63
2021/10/25 12:15:32;;;;;;;;;;;;;;;15.39;35.50;101215.13;5013828;28;830;-63
2021/10/25 12:17:59;;;;;;;;;;;;;;;15.21;35.92;101217.16;5013600;28;1358;-62
2021/10/25 12:20:27;;;;;;;;;;;;;;;15.21;36.29;101217.16;5013755;28;878;-64
2021/10/25 12:22:58;;;;;;;;;;;;;;;15.07;36.74;101220.75;5013582;28;1910;-62
2021/10/25 12:25:24;;;;;;;;;;;;;;;15.24;36.96;101224.72;5013564;28;850;-60
2021/10/25 12:27:58;;;;;;;;;;;;;;;15.68;36.77;101218.66;5013450;28;1037;-63
2021/10/25 12:30:26;;;;;;;;;;;;;;;16.13;36.06;101209.72;5013533;28;787;-61
2021/10/25 12:32:58;;;;;;;;;;;;;;;16.14;35.28;101225.25;5013629;28;863;-60
2021/10/25 12:35:32;;;;;;;;;;;;;;;16.11;34.88;101221.28;5013484;28;849;-60
2021/10/25 12:38:00;;;;;;;;;;;;;;;16.24;35.31;101212.47;5013440;28;779;-60
2021/10/25 12:40:27;;;;;;;;;;;;;;;16.62;35.15;101205.03;4995651;28;1161;-61
2021/10/25 12:42:58;;;;;;;;;;;;;;;16.83;35.61;101204.06;5013230;28;1918;-60
2021/10/25 12:45:29;;;;;;;;;;;;;;;17.17;35.29;101202.59;5013517;28;827;-60
2021/10/25 12:47:58;;;;;;;;;;;;;;;16.66;34.50;101210.56;5013649;28;838;-60
2021/10/25 12:50:24;;;;;;;;;;;;;;;16.31;35.47;101198.47;5013330;28;886;-61
2021/10/25 12:52:54;;;;;;;;;;;;;;;15.99;35.60;101207.78;5013430;28;865;-63
2021/10/25 12:55:22;;;;;;;;;;;;;;;15.69;35.75;101211.88;5013203;28;842;-60
2021/10/25 12:57:48;;;;;;;;;;;;;;;15.82;36.54;101206.66;5013112;28;819;-62
2021/10/25 13:00:15;;;;;;;;;;;;;;;16.07;36.67;101208.56;5012939;28;819;-63
2021/10/25 13:02:47;;;;;;;;;;;;;;;16.30;35.65;101194.06;5012937;28;1890;-60
2021/10/25 13:05:16;;;;;;;;;;;;;;;16.22;35.49;101201.69;5012850;28;815;-60
2021/10/25 13:07:49;;;;;;;;;;;;;;;16.01;35.54;101207.41;5012822;28;838;-60
2021/10/25 13:10:17;;;;;;;;;;;;;;;15.63;35.88;101204.31;5012393;28;811;-63
2021/10/25 13:12:43;;;;;;;;;;;;;;;15.30;36.30;101207.19;4995170;28;1319;-60
2021/10/25 13:15:10;;;;;;;;;;;;;;;15.59;37.07;101198.75;5012670;28;859;-60
2021/10/25 13:17:37;;;;;;;;;;;;;;;15.78;36.64;101202.31;5012530;28;1163;-61
2021/10/25 13:20:05;;;;;;;;;;;;;;;15.82;36.41;101203.09;5012576;28;1077;-60
2021/10/25 13:22:32;;;;;;;;;;;;;;;15.65;35.77;101199.16;5012480;28;1976;-60
2021/10/25 13:25:00;;;;;;;;;;;;;;;15.43;36.94;101204.00;4994911;28;894;-63
2021/10/25 13:27:26;;;;;;;;;;;;;;;15.28;36.61;101203.22;5012660;28;803;-61
2021/10/25 13:29:52;;;;;;;;;;;;;;;15.32;36.86;101198.44;4994870;28;1185;-60
2021/10/25 13:32:21;;;;;;;;;;;;;;;15.67;37.05;101205.09;5012361;28;823;-60
2021/10/25 13:34:48;;;;;;;;;;;;;;;15.74;36.12;101199.53;5012373;28;894;-60
2021/10/25 13:37:15;;;;;;;;;;;;;;;15.43;36.29;101199.22;5012311;28;949;-61
2021/10/25 13:39:42;;;;;;;;;;;;;;;14.93;36.68;101199.28;5012212;28;831;-61
2021/10/25 13:42:08;;;;;;;;;;;;;;;14.57;37.52;101201.25;5012133;28;1878;-63
2021/10/25 13:44:34;;;;;;;;;;;;;;;14.46;37.95;101192.88;4994556;28;744;-64
2021/10/25 13:47:01;;;;;;;;;;;;;;;14.37;38.72;101187.69;5012181;28;796;-63
2021/10/25 13:49:27;;;;;;;;;;;;;;;14.32;39.15;101193.66;5012085;28;898;-63
2021/10/25 13:51:54;;;;;;;;;;;;;;;14.15;38.80;101184.09;5012074;28;850;-63
2021/10/25 13:54:21;;;;;;;;;;;;;;;13.82;39.55;101177.63;5012084;28;839;-63
2021/10/25 13:56:47;;;;;;;;;;;;;;;13.72;40.21;101178.41;5011977;28;866;-62
2021/10/25 13:59:14;;;;;;;;;;;;;;;13.76;40.77;101181.16;5011975;28;815;-63
2021/10/25 14:01:41;;;;;;;;;;;;;;;13.67;40.67;101187.09;5011917;28;1886;-63
2021/10/25 14:04:10;;;;;;;;;;;;;;;13.50;41.16;101187.78;5011900;28;854;-62
2021/10/25 14:06:37;;;;;;;;;;;;;;;13.37;41.30;101181.78;5012172;28;822;-63
2021/10/25 14:09:03;;;;;;;;;;;;;;;13.22;41.30;101183.63;5011717;28;807;-62
2021/10/25 14:11:37;;;;;;;;;;;;;;;13.06;41.82;101181.97;5011894;28;838;-63
2021/10/25 14:16:35;;;;;;;;;;;;;;;12.70;42.53;101177.34;5011926;28;684;-63
2021/10/25 14:19:05;;;;;;;;;;;;;;;12.59;43.34;101177.25;4993954;28;1229;-62
2021/10/25 14:21:34;;;;;;;;;;;;;;;12.40;43.12;101170.72;5010867;28;1972;-62
2021/10/25 14:24:02;;;;;;;;;;;;;;;12.22;43.24;101167.75;5011805;28;838;-62
2021/10/25 14:26:28;;;;;;;;;;;;;;;12.10;43.49;101175.53;5011634;28;799;-62
2021/10/25 14:28:55;;;;;;;;;;;;;;;11.97;44.07;101170.28;5011820;28;851;-63
2021/10/25 14:31:22;;;;;;;;;;;;;;;11.88;44.17;101171.72;5011821;28;831;-62
2021/10/25 14:33:49;;;;;;;;;;;;;;;11.77;44.75;101166.06;5011603;28;814;-62
2021/10/25 14:36:17;;;;;;;;;;;;;;;11.60;46.76;101165.44;5011619;28;803;-62
2021/10/25 14:44:22;;;;;;;;;;;;;;;11.09;50.73;101167.91;5011575;28;683;-62
2021/10/25 14:53:20;;;;;;;;;;;;;;;10.68;52.39;101167.69;5011498;28;693;-62
2021/10/25 14:57:22;;;;;;;;;;;;;;;10.14;55.11;101169.47;5011695;28;756;-62
2021/10/25 14:59:49;;;;;;;;;;;;;;;9.99;55.15;101177.47;5011474;28;889;-62
2021/10/25 15:02:16;;;;;;;;;;;;;;;9.84;55.84;101166.53;5011239;28;1902;-62
2021/10/25 15:04:43;;;;;;;;;;;;;;;9.64;56.76;101169.28;5011558;28;818;-62